Aérodrome :
LOGIN :

S'inscrire | Disclaimer

   EN    FR    IT 

 










Légende :    VFR   VFR Marginal   IFR   IFR Intensif   IFR Très Intensif
Visi : 
Plafond : 
>= 8 km
>= 3000ft
5 à 8 km
1000 à 3000 ft
1500m à 5 km
500 à 1000 ft
800 à 1500m
200 à 500 ft
< 800m
< 200 ft
Symboles :   Orages  Brouillard  Fortes neiges  Fortes précipitations  Vent > 20 kt
SIGMETs :   Divers  Orages  Givrage  Turbulence  Onde Orograph.  Cendres Volcan.







- Altitude de l'aérodrome : 23 ft
- Code IATA : XFW


EDHI - Hamburg Finkenwerder

DERNIER METAR :
  • 251950Z 34006KT 9999 FEW030 06/02 Q1023

METARs EXPIRÉS :
  • 251920Z 34004KT 9999 FEW030 07/02 Q1023
  • 251850Z 35006KT 9999 FEW033 07/02 Q1022
  • 251820Z 35008KT 9999 FEW030 SCT038 08/02 Q1022
  • 251750Z 36005KT 9999 FEW035 SCT041 08/02 Q1021
  • 251720Z 35011KT 9999 SCT046 08/01 Q1020
  • 251650Z 36012KT 320V020 9999 FEW044 SCT048 09/01 Q1020

TAF TAF EDHI
Valide du 25 à 18h jusqu'au 25 à 21h UTC


251700Z 2518/2521 36009KT 9999 SCT035
BECMG 2518/2520 31004KT
Pas de NOTAMs connus pour ce terrain.



MET'MAP, la Météo Aéronautique d'un coup d'oeil ! - Copyright ORBIFLY Décembre 2007 - Disclaimer

ORBIFLY MET'MAP TEAM :

Programmation & Développement : Alexandra Zaïnal
Conception & Développement : Baudouin d'Aumeries
Co-Programmation & Développement : Marc-Olivier Méhu
Soutien technique & logistique : Manuel Goepfert

Contact : metmap@orbifly.com




SOURCES & CREDITS :

   NOAA